Latest Weather Observations for Braidwood

IDN60801

Issued at 1:03 am EST Monday 10 August 2020 (issued every 10 minutes, with the page automatically refreshed every 10 minutes)

About weather observations | Map of weather stations | Latest weather observations for NSW | Other Formats
Station Details ID: 069132 Name: BRAIDWOOD RACECOURSE AWS Lat: -35.43 Lon: 149.78 Height: 665.2 m
Data from the previous 72 hours. | See also: Recent months at Braidwood
Date/Time
EST
Temp
°C
App
Temp
°C
Dew
Point
°C
Rel
Hum
%
Delta-T
°C
Wind Press
QNH
hPa
Press
MSL
hPa
Rain since
9am
mm
Dir  Spd
km/h
Gust
km/h
Spd
kts
Gust
kts
10/01:00am 7.5 0.3 5.1 85 1.1 SSE 32 50 17 27 1015.2 1015.9 28.6
10/12:37am 7.8 1.4 5.4 85 1.1 SSE 28 50 15 27 1015.3 1016.0 28.4
10/12:30am 7.5 1.5 5.1 85 1.1 SSE 26 43 14 23 1015.3 1016.0 28.2
10/12:00am 7.6 -0.2 4.7 82 1.3 SSE 35 57 19 31 1015.1 1015.8 28.2
 
Date/Time
EST
Temp
°C
App
Temp
°C
Dew
Point
°C
Rel
Hum
%
Delta-T
°C
Wind Press
QNH
hPa
Press
MSL
hPa
Rain since
9am
mm
Dir  Spd
km/h
Gust
km/h
Spd
kts
Gust
kts
09/11:54pm 8.1 1.4 5.4 83 1.3 SSE 30 54 16 29 1015.1 1015.8 28.0
09/11:30pm 8.2 0.9 5.5 83 1.3 SSE 33 52 18 28 1014.9 1015.6 28.0
09/11:09pm 8.1 0.1 5.6 84 1.2 SSE 37 56 20 30 1014.7 1015.4 27.8
09/11:00pm 7.9 -0.5 5.7 86 1.0 SSE 39 56 21 30 1014.6 1015.3 27.8
09/10:30pm 8.0 0.0 5.5 84 1.2 SSE 37 57 20 31 1014.3 1015.0 26.8
09/10:05pm 8.2 0.2 5.8 85 1.1 SSE 37 63 20 34 1014.4 1015.1 26.8
09/10:00pm 8.0 0.5 6.1 88 0.9 SSE 35 52 19 28 1014.4 1015.1 26.6
09/09:52pm 7.7 0.6 6.2 90 0.7 SSE 33 48 18 26 1014.3 1015.0 26.6
09/09:34pm 7.7 0.2 6.3 91 0.7 SSE 35 56 19 30 1014.4 1015.1 26.2
09/09:33pm 7.6 0.5 6.2 91 0.7 SSE 33 48 18 26 1014.4 1015.1 26.2
09/09:30pm 7.6 0.6 6.2 91 0.7 SSE 32 46 17 25 1014.4 1015.1 26.0
09/09:00pm 7.7 0.6 6.2 90 0.7 SSE 33 54 18 29 1014.0 1014.7 24.4
09/08:30pm 7.8 0.2 5.9 88 0.9 SSE 35 56 19 30 1014.0 1014.7 22.6
09/08:00pm 7.4 -0.2 5.7 89 0.8 SSE 35 56 19 30 1013.7 1014.4 21.4
09/07:30pm 7.4 -0.7 5.4 87 0.9 SSE 37 57 20 31 1013.3 1014.0 19.2
09/07:10pm 7.8 0.8 5.9 88 0.9 SSE 32 52 17 28 1013.2 1013.9 18.0
09/07:00pm 7.8 0.3 6.1 89 0.8 SSE 35 52 19 28 1013.2 1013.9 17.8
09/06:43pm 7.8 0.2 5.9 88 0.9 SE 35 57 19 31 1013.0 1013.7 17.0
09/06:41pm 7.7 0.1 5.8 88 0.9 SE 35 50 19 27 1013.0 1013.7 16.8
09/06:30pm 7.6 -0.4 5.6 87 0.9 SE 37 57 20 31 1012.9 1013.6 16.4
09/06:19pm 7.9 0.8 6.4 90 0.7 SSE 33 57 18 31 1012.9 1013.6 16.0
09/06:18pm 7.9 0.8 6.4 90 0.7 SSE 33 50 18 27 1012.9 1013.6 16.0
09/06:10pm 7.8 0.3 6.3 90 0.7 SSE 35 52 19 28 1012.4 1013.1 15.6
09/06:00pm 8.0 2.0 6.9 93 0.5 SSE 28 52 15 28 1012.4 1013.1 15.0
09/05:51pm 7.4 2.0 6.2 92 0.6 SSE 24 39 13 21 1012.4 1013.1 14.6
09/05:48pm 7.5 2.0 6.1 91 0.7 SSE 24 39 13 21 1012.3 1013.0 14.2
09/05:30pm 7.8 1.7 6.6 92 0.6 SSE 28 39 15 21 1012.2 1012.9 12.8
09/05:15pm 7.4 0.8 6.0 91 0.7 SSE 30 46 16 25 1012.0 1012.7 11.6
09/05:00pm 7.8 1.2 6.1 89 0.8 SSE 30 46 16 25 1011.8 1012.5 11.0
09/04:30pm 7.7 1.0 5.5 86 1.0 SSE 30 41 16 22 1011.8 1012.5 9.8
09/04:29pm 7.8 1.1 5.6 86 1.0 SSE 30 41 16 22 1011.8 1012.5 9.6
09/04:15pm 8.0 1.8 6.1 88 0.9 SE 28 54 15 29 1011.8 1012.5 9.6
09/04:06pm 8.2 1.2 6.2 87 1.0 SSE 32 50 17 27 1011.7 1012.4 9.4
09/04:00pm 8.3 1.1 5.9 85 1.1 SSE 33 50 18 27 1011.5 1012.1 9.2
09/03:32pm 8.8 2.5 5.5 80 1.6 SSE 28 52 15 28 1011.6 1012.3 9.0
09/03:30pm 8.9 2.6 5.6 80 1.6 SSE 28 39 15 21 1011.5 1012.1 9.0
09/03:00pm 8.3 1.4 6.3 87 1.0 SSE 32 46 17 25 1011.5 1012.1 9.0
09/02:46pm 8.2 1.2 6.0 86 1.0 SSE 32 50 17 27 1011.5 1012.1 9.0
09/02:30pm 8.3 1.6 5.8 84 1.2 SE 30 46 16 25 1011.6 1012.3 9.0
09/02:00pm 9.3 3.6 6.9 85 1.2 SE 26 39 14 21 1011.3 1011.9 9.0
09/01:42pm 9.2 3.5 6.8 85 1.2 SE 26 39 14 21 1011.6 1012.3 9.0
09/01:30pm 8.6 2.5 6.6 87 1.0 SE 28 46 15 25 1011.7 1012.4 9.0
09/01:14pm 8.1 2.4 6.7 91 0.7 SE 26 39 14 21 1011.7 1012.4 8.8
09/01:11pm 8.2 2.5 6.7 90 0.7 SE 26 39 14 21 1011.7 1012.4 8.4
09/01:00pm 8.5 2.4 6.8 89 0.8 SE 28 39 15 21 1011.8 1012.5 7.4
09/12:30pm 8.2 3.7 7.1 93 0.5 SSE 20 32 11 17 1011.7 1012.4 7.0
09/12:00pm 8.3 4.0 7.2 93 0.5 SE 19 28 10 15 1012.0 1012.7 6.6
09/11:52am 8.1 2.0 6.7 91 0.7 SE 28 46 15 25 1012.2 1012.9 6.0
09/11:30am 8.2 1.8 6.8 91 0.7 ESE 30 41 16 22 1012.6 1013.2 5.0
09/11:01am 8.6 2.3 7.4 92 0.6 SE 30 50 16 27 1012.6 1013.2 3.8
09/11:00am 8.6 2.3 7.4 92 0.6 SE 30 46 16 25 1012.6 1013.2 3.8
09/10:34am 8.6 2.1 6.6 87 1.0 SE 30 52 16 28 1012.3 1013.0 3.0
09/10:30am 8.4 1.9 6.4 87 1.0 SE 30 46 16 25 1012.3 1013.0 3.0
09/10:14am 8.5 2.5 7.0 90 0.7 SE 28 46 15 25 1012.7 1013.3 2.8
09/10:00am 8.5 3.2 7.0 90 0.7 SE 24 37 13 20 1012.6 1013.2 2.6
09/09:30am 7.5 2.1 6.3 92 0.6 SE 24 33 13 18 1012.7 1013.3 2.2
09/09:08am 7.4 0.8 5.9 90 0.7 SE 30 50 16 27 1012.9 1013.6 0.8
09/09:00am 7.3 1.0 5.6 89 0.8 SE 28 41 15 22 1012.9 1013.6 83.8
09/08:30am 7.8 2.5 6.6 92 0.6 SE 24 37 13 20 1012.7 1013.3 81.2
09/08:00am 8.1 0.7 6.6 90 0.7 ESE 35 50 19 27 1012.0 1012.7 78.4
09/07:58am 8.2 0.4 6.7 90 0.7 ESE 37 50 20 27 1012.0 1012.7 78.2
09/07:43am 8.5 2.2 7.3 92 0.6 SE 30 48 16 26 1011.8 1012.5 76.8
09/07:30am 8.4 3.3 7.5 94 0.4 SE 24 39 13 21 1011.6 1012.3 75.8
09/07:24am 8.3 3.1 7.4 94 0.4 SSE 24 37 13 20 1011.5 1012.1 74.8
09/07:12am 8.0 2.8 7.2 95 0.4 SSE 24 37 13 20 1011.2 1011.8 73.2
09/07:00am 7.3 2.3 6.6 95 0.3 SSE 22 37 12 20 1011.2 1011.8 72.2
09/06:53am 6.9 1.8 6.2 95 0.3 SSE 22 32 12 17 1011.3 1011.9 71.4
09/06:33am 6.6 0.7 5.7 94 0.4 S 26 33 14 18 1011.2 1011.8 69.6
09/06:30am 6.6 0.7 5.7 94 0.4 S 26 35 14 19 1011.2 1011.8 69.2
09/06:04am 6.5 -0.3 5.3 92 0.6 S 30 39 16 21 1011.2 1011.8 67.6
09/06:00am 6.5 -0.3 5.3 92 0.6 S 30 39 16 21 1011.2 1011.8 67.2
09/05:30am 6.7 1.1 5.5 92 0.6 S 24 35 13 19 1011.2 1011.8 65.2
09/05:00am 6.9 0.1 5.2 89 0.8 SSE 30 43 16 23 1011.5 1012.1 63.0
09/04:30am 7.5 1.2 5.8 89 0.8 SSE 28 48 15 26 1011.6 1012.3 60.8
09/04:00am 7.7 2.3 6.3 91 0.7 SSE 24 37 13 20 1011.8 1012.5 59.0
09/03:30am 7.9 3.3 6.7 92 0.6 SSE 20 32 11 17 1011.7 1012.4 56.8
09/03:00am 7.9 2.5 6.4 90 0.7 SE 24 41 13 22 1011.8 1012.5 54.0
09/02:54am 8.1 3.1 6.6 90 0.7 SE 22 41 12 22 1011.8 1012.5 53.8
09/02:30am 8.3 3.0 6.9 91 0.7 SE 24 35 13 19 1012.0 1012.7 51.2
09/02:00am 8.3 2.6 6.9 91 0.7 SE 26 43 14 23 1012.2 1012.9 48.4
09/01:30am 8.4 3.6 7.3 93 0.5 SSE 22 37 12 20 1012.0 1012.7 45.4
09/01:28am 8.4 4.0 7.3 93 0.5 SSE 20 33 11 18 1012.1 1012.8 45.2
09/01:00am 8.4 2.8 7.2 92 0.6 SSE 26 41 14 22 1012.0 1012.7 42.2
09/12:30am 8.5 3.3 7.1 91 0.7 SSE 24 37 13 20 1012.0 1012.7 38.6
09/12:00am 8.4 4.6 7.5 94 0.4 SSE 17 24 9 13 1012.3 1013.0 36.4
 
Date/Time
EST
Temp
°C
App
Temp
°C
Dew
Point
°C
Rel
Hum
%
Delta-T
°C
Wind Press
QNH
hPa
Press
MSL
hPa
Rain since
9am
mm
Dir  Spd
km/h
Gust
km/h
Spd
kts
Gust
kts
08/11:35pm 8.4 4.6 7.6 95 0.4 SSE 17 26 9 14 1012.6 1013.2 33.2
08/11:34pm 8.4 4.6 7.6 95 0.4 S 17 26 9 14 1012.4 1013.1 33.0
08/11:30pm 8.4 5.0 7.6 95 0.4 S 15 26 8 14 1012.4 1013.1 32.6
08/11:00pm 8.4 5.4 7.6 95 0.4 SSE 13 20 7 11 1013.0 1013.7 29.4
08/10:44pm 8.2 6.3 7.4 95 0.4 S 7 9 4 5 1013.1 1013.8 28.2
08/10:30pm 8.1 6.1 7.3 95 0.4 SSW 7 9 4 5 1013.0 1013.7 26.6
08/10:00pm 8.1 6.3 7.3 95 0.4 SSE 6 7 3 4 1013.2 1013.9 22.4
08/09:30pm 8.2 6.3 7.4 95 0.4 SE 7 11 4 6 1013.3 1014.0 20.4
08/09:19pm 8.2 6.5 7.4 95 0.4 SE 6 9 3 5 1013.4 1014.1 20.0
08/09:00pm 8.3 5.6 7.4 94 0.4 ESE 11 15 6 8 1013.3 1014.0 19.8
08/08:47pm 8.3 6.4 7.5 95 0.4 SE 7 13 4 7 1013.4 1014.1 19.2
08/08:30pm 8.3 6.6 7.4 94 0.4 S 6 7 3 4 1013.4 1014.1 18.8
08/08:00pm 8.2 5.8 7.0 92 0.6 E 9 11 5 6 1013.5 1014.2 17.0
08/07:51pm 8.4 5.2 6.9 90 0.7 E 13 17 7 9 1013.4 1014.1 16.6
08/07:30pm 8.8 3.7 7.6 92 0.6 ESE 24 37 13 20 1013.4 1014.1 14.6
08/07:00pm 8.7 5.3 7.6 93 0.5 SSE 15 20 8 11 1013.0 1013.7 12.2
08/06:30pm 8.7 6.1 7.6 93 0.5 SE 11 20 6 11 1013.1 1013.8 11.4
08/06:00pm 8.8 6.6 8.0 95 0.4 SE 9 17 5 9 1013.2 1013.9 11.2
08/05:30pm 8.8 7.0 7.9 94 0.4 SE 7 13 4 7 1013.1 1013.8 10.6
08/05:00pm 8.8 6.2 7.7 93 0.5 ESE 11 17 6 9 1013.1 1013.8 10.0
08/04:30pm 9.0 6.9 8.1 94 0.4 SE 9 15 5 8 1013.1 1013.8 9.4
08/04:00pm 9.0 7.4 7.8 92 0.6 SE 6 11 3 6 1013.2 1013.9 7.2
08/03:30pm 9.5 6.9 7.8 89 0.8 ENE 11 17 6 9 1013.2 1013.9 5.2
08/03:00pm 9.8 6.7 8.7 93 0.6 ESE 15 20 8 11 1013.2 1013.9 5.2
08/02:30pm 9.7 6.5 8.6 93 0.6 ESE 15 20 8 11 1013.0 1013.7 5.2
08/02:00pm 9.8 6.7 8.9 94 0.5 SE 15 22 8 12 1012.8 1013.4 5.2
08/01:30pm 9.5 6.0 8.6 94 0.5 SE 17 24 9 13 1013.3 1014.0 5.2
08/01:00pm 9.1 5.4 8.0 93 0.5 SSE 17 20 9 11 1013.5 1014.2 4.6
08/12:30pm 9.0 5.4 8.2 95 0.4 SSE 17 22 9 12 1014.2 1014.9 4.6
08/12:00pm 8.7 5.4 7.9 95 0.4 SSE 15 20 8 11 1014.6 1015.3 4.4
08/11:30am 8.7 4.6 7.8 94 0.4 S 19 24 10 13 1015.0 1015.7 4.4
08/11:00am 8.7 4.0 7.6 93 0.5 S 22 30 12 16 1015.3 1016.0 4.4
08/10:41am 8.6 3.5 7.5 93 0.5 S 24 32 13 17 1015.6 1016.4 4.4
08/10:30am 8.9 3.9 8.0 94 0.4 SSE 24 33 13 18 1015.6 1016.4 4.4
08/10:00am 7.9 4.0 7.0 94 0.4 SE 17 26 9 14 1016.5 1017.2 4.0
08/09:47am 7.8 3.5 6.9 94 0.4 SE 19 28 10 15 1016.4 1017.1 2.6
08/09:30am 8.0 3.5 7.1 94 0.4 SSE 20 28 11 15 1016.4 1017.1 1.4
08/09:00am 8.0 4.1 6.9 93 0.5 SE 17 26 9 14 1016.5 1017.2 23.0
08/08:30am 8.1 4.5 6.9 92 0.6 SE 15 24 8 13 1016.9 1017.7 23.0
08/08:00am 7.6 5.1 6.7 94 0.4 SSE 9 13 5 7 1016.8 1017.6 23.0
08/07:30am 7.6 4.0 6.7 94 0.4 SE 15 22 8 12 1016.6 1017.3 23.0
08/07:24am 7.6 3.6 6.5 93 0.5 SE 17 26 9 14 1016.5 1017.2 23.0
08/07:00am 7.6 3.0 6.7 94 0.4 ESE 20 28 11 15 1016.5 1017.2 22.4
08/06:30am 7.6 3.6 6.7 94 0.4 ESE 17 24 9 13 1016.3 1017.0 22.0
08/06:12am 7.5 3.5 6.6 94 0.4 SE 17 22 9 12 1016.1 1016.8 21.8
08/06:00am 7.6 3.2 6.5 93 0.5 ESE 19 26 10 14 1016.2 1016.9 21.6
08/05:30am 7.7 3.1 6.5 92 0.6 ESE 20 28 11 15 1016.0 1016.7 21.6
08/05:00am 7.3 3.2 6.4 94 0.4 SE 17 26 9 14 1015.6 1016.4 21.6
08/04:30am 7.2 4.3 6.3 94 0.4 SE 11 17 6 9 1015.6 1016.4 21.6
08/04:00am 7.3 4.0 6.4 94 0.4 SE 13 22 7 12 1015.8 1016.5 21.4
08/03:30am 7.2 2.7 6.1 93 0.5 ESE 19 24 10 13 1016.0 1016.7 21.2
08/03:00am 7.2 2.6 6.3 94 0.4 SE 20 26 11 14 1016.1 1016.8 21.2
08/02:30am 7.2 3.9 6.5 95 0.3 SE 13 20 7 11 1016.3 1017.0 21.0
08/02:21am 7.2 5.1 6.5 95 0.3 SE 7 9 4 5 1016.4 1017.1 21.0
08/02:11am 7.1 4.5 6.2 94 0.4 SE 9 15 5 8 1016.6 1017.3 20.8
08/02:00am 7.2 4.3 6.5 95 0.3 ESE 11 15 6 8 1016.8 1017.6 20.8
08/01:36am 7.2 5.1 6.5 95 0.3 SE 7 11 4 6 1017.1 1017.9 20.4
08/01:30am 7.2 5.1 6.5 95 0.3 SE 7 9 4 5 1017.2 1018.0 20.4
08/01:00am 7.1 4.6 6.4 95 0.3 SE 9 13 5 7 1017.5 1018.2 20.2
08/12:52am 7.1 4.5 6.2 94 0.4 SE 9 15 5 8 1017.5 1018.2 20.0
08/12:38am 7.1 3.8 6.4 95 0.3 SE 13 17 7 9 1017.6 1018.3 19.4
08/12:30am 7.1 4.2 6.4 95 0.3 SE 11 17 6 9 1017.7 1018.4 19.4
08/12:14am 7.0 4.0 6.1 94 0.4 SE 11 17 6 9 1017.8 1018.5 19.2
08/12:00am 7.0 4.4 6.1 94 0.4 SE 9 17 5 9 1018.0 1018.8 18.6
 
Date/Time
EST
Temp
°C
App
Temp
°C
Dew
Point
°C
Rel
Hum
%
Delta-T
°C
Wind Press
QNH
hPa
Press
MSL
hPa
Rain since
9am
mm
Dir  Spd
km/h
Gust
km/h
Spd
kts
Gust
kts
07/11:38pm 7.0 4.7 5.9 93 0.5 SE 7 11 4 6 1018.2 1019.0 17.8
07/11:30pm 7.0 4.4 5.9 93 0.5 ESE 9 13 5 7 1018.2 1019.0 17.6
07/11:13pm 7.1 3.7 5.9 92 0.6 ESE 13 17 7 9 1018.4 1019.2 17.0
07/11:00pm 7.2 3.5 6.1 93 0.5 ESE 15 20 8 11 1018.4 1019.2 16.8
07/10:30pm 7.1 3.7 6.0 93 0.5 ESE 13 19 7 10 1018.4 1019.2 15.8
07/10:24pm 7.1 4.1 6.0 93 0.5 SE 11 17 6 9 1018.5 1019.3 15.4
07/10:00pm 7.1 3.7 5.9 92 0.6 ESE 13 19 7 10 1018.6 1019.4 15.0
07/09:30pm 7.0 3.1 5.3 89 0.8 E 15 20 8 11 1018.7 1019.5 14.8
07/09:00pm 7.1 3.7 5.7 91 0.7 ESE 13 19 7 10 1018.8 1019.6 14.2
07/08:30pm 7.0 3.5 5.6 91 0.7 ESE 13 17 7 9 1018.7 1019.5 13.2
07/08:00pm 6.8 4.1 5.6 92 0.6 ESE 9 15 5 8 1018.5 1019.3 12.6
07/07:30pm 6.7 4.0 5.5 92 0.6 ESE 9 13 5 7 1018.3 1019.1 11.0
07/07:00pm 7.0 2.3 5.0 87 0.9 ESE 19 26 10 14 1018.1 1018.9 10.2
07/06:32pm 7.1 2.2 5.3 88 0.8 ESE 20 35 11 19 1017.8 1018.5 10.0
07/06:30pm 7.0 2.1 5.3 89 0.8 ESE 20 32 11 17 1017.8 1018.5 10.0
07/06:20pm 7.0 2.8 5.6 91 0.7 ESE 17 24 9 13 1017.7 1018.4 10.0
07/06:00pm 6.9 2.0 5.1 88 0.8 E 20 32 11 17 1017.7 1018.4 9.6
07/05:30pm 6.8 1.9 5.3 90 0.7 ESE 20 26 11 14 1017.6 1018.3 9.4
07/05:02pm 6.9 1.3 5.2 89 0.8 ESE 24 32 13 17 1017.6 1018.3 8.8
07/05:00pm 6.9 1.6 5.2 89 0.8 ESE 22 32 12 17 1017.6 1018.3 8.8
07/04:30pm 6.8 2.2 5.6 92 0.6 ESE 19 22 10 12 1017.6 1018.3 8.4
07/04:26pm 6.8 2.2 5.6 92 0.6 ESE 19 24 10 13 1017.6 1018.3 8.4
07/04:00pm 6.7 2.4 5.3 91 0.6 SE 17 24 9 13 1018.0 1018.8 8.0
07/03:30pm 6.8 2.2 5.4 91 0.6 ESE 19 26 10 14 1018.6 1019.4 7.4
07/03:14pm 6.8 2.5 5.4 91 0.6 ESE 17 24 9 13 1018.8 1019.6 7.2
07/03:00pm 6.8 2.5 5.4 91 0.6 ESE 17 22 9 12 1019.1 1019.8 6.8
07/02:45pm 6.8 2.5 5.4 91 0.6 ESE 17 20 9 11 1019.2 1019.9 6.6
07/02:30pm 6.8 2.5 5.4 91 0.6 SE 17 22 9 12 1019.3 1020.1 6.2
07/02:00pm 6.8 2.9 5.3 90 0.7 SE 15 20 8 11 1019.6 1020.4 5.4
07/01:30pm 6.9 2.6 5.2 89 0.8 ESE 17 22 9 12 1019.9 1020.7 5.0
07/01:03pm 6.8 2.1 5.1 89 0.8 ESE 19 24 10 13 1019.9 1020.7 4.8
07/01:00pm 6.9 2.2 5.2 89 0.8 ESE 19 24 10 13 1020.0 1020.8 4.8
07/12:30pm 6.8 3.0 5.6 92 0.6 ESE 15 20 8 11 1020.4 1021.2 3.4
07/12:00pm 7.0 2.8 5.6 91 0.6 SE 17 26 9 14 1021.1 1021.9 2.8
07/11:30am 6.9 2.6 5.4 90 0.7 SE 17 24 9 13 1021.5 1022.3 2.6
07/11:00am 6.7 3.2 5.5 92 0.6 SE 13 19 7 10 1021.7 1022.5 2.4
07/10:30am 6.3 2.8 5.4 94 0.4 SE 13 20 7 11 1022.3 1023.1 2.0
07/10:00am 5.8 3.3 4.8 93 0.4 SSE 7 11 4 6 1022.6 1023.4 0.8
07/09:30am 6.0 3.5 5.0 93 0.5 SSE 7 11 4 6 1022.8 1023.6 0.0
07/09:00am 5.5 2.2 4.3 92 0.5 S 11 15 6 8 1022.5 1023.3 0.0
07/08:30am 5.1 1.3 3.9 92 0.5 SSE 13 19 7 10 1022.2 1023.0 0.0
07/08:00am 5.0 1.1 3.5 90 0.6 S 13 19 7 10 1022.4 1023.2 0.0
07/07:30am 4.9 1.3 3.2 89 0.7 SSE 11 15 6 8 1022.5 1023.3 0.0
07/07:17am 4.9 1.3 2.9 87 0.9 SSE 11 15 6 8 1022.5 1023.3 0.0
07/07:00am 5.1 1.8 2.6 84 1.1 SSE 9 13 5 7 1022.7 1023.5 0.0
07/06:30am 5.3 1.9 2.1 80 1.3 SSE 9 13 5 7 1022.2 1023.0 0.0
07/06:00am 4.9 2.1 2.1 82 1.2 SSE 6 9 3 5 1022.2 1023.0 0.0
07/05:30am 4.6 1.5 1.5 80 1.3 SSE 7 11 4 6 1021.9 1022.8 0.0
07/05:24am 4.6 1.1 1.3 79 1.4 SSE 9 13 5 7 1021.8 1022.7 0.0
07/05:00am 4.2 0.6 0.7 78 1.4 SSE 9 13 5 7 1021.6 1022.4 0.0
07/04:30am 3.8 0.3 1.2 83 1.1 SSE 9 15 5 8 1021.5 1022.3 0.0
07/04:00am 2.2 0.3 0.4 88 0.7 CALM 0 0 0 0 1021.4 1022.2 0.0
07/03:48am 1.6 -0.4 -0.2 88 0.7 CALM 0 0 0 0 1021.4 1022.2 0.0
07/03:30am 1.3 -0.8 -0.5 88 0.7 CALM 0 0 0 0 1021.6 1022.4 0.0
07/03:00am 0.9 -1.2 -0.5 90 0.5 CALM 0 0 0 0 1021.6 1022.4 0.0
07/02:30am 0.2 -1.9 -0.9 92 0.4 CALM 0 0 0 0 1021.8 1022.7 0.0
07/02:00am -0.7 -3.0 -2.3 89 0.5 CALM 0 0 0 0 1021.8 1022.7 0.0
07/01:30am -1.1 -3.5 -3.1 86 0.6 CALM 0 0 0 0 1021.9 1022.8 0.0

Other formats

Comma delimited format used in spreadsheet applications
http://www.bom.gov.au/fwo/IDN60801/IDN60801.94927.axf

JavaScript Object Notation format (JSON) in row-major order
http://www.bom.gov.au/fwo/IDN60801/IDN60801.94927.json

Data quality

Most of these data are generated automatically and are frequently updated. Quality checks on data are not normally performed. It is possible for incorrect values to appear. Refer to information at About Latest Weather Observations and please check the disclaimer before using these data.